sensor_id;sensor_type;location;lat;lon;timestamp;pressure;altitude;pressure_sealevel;temperature;humidity
82476;BME280;72099;43.176;76.872;2023-11-21T00:00:53;90126.03;;;1.27;84.26
82476;BME280;72099;43.176;76.872;2023-11-21T00:03:54;90127.91;;;1.64;83.60
82476;BME280;72099;43.176;76.872;2023-11-21T00:06:55;90129.56;;;1.97;83.16
82476;BME280;72099;43.176;76.872;2023-11-21T00:09:56;90125.88;;;2.17;82.31
82476;BME280;72099;43.176;76.872;2023-11-21T00:12:57;90125.09;;;2.35;81.93
82476;BME280;72099;43.176;76.872;2023-11-21T00:15:58;90117.28;;;2.22;81.25
82476;BME280;72099;43.176;76.872;2023-11-21T00:18:59;90117.63;;;1.96;81.30
82476;BME280;72099;43.176;76.872;2023-11-21T00:22:00;90121.13;;;1.87;82.25
82476;BME280;72099;43.176;76.872;2023-11-21T00:25:01;90120.78;;;1.93;81.81
82476;BME280;72099;43.176;76.872;2023-11-21T00:28:02;90116.31;;;1.99;82.18
82476;BME280;72099;43.176;76.872;2023-11-21T00:31:04;90116.69;;;2.25;81.81
82476;BME280;72099;43.176;76.872;2023-11-21T00:34:05;90119.63;;;2.18;81.31
82476;BME280;72099;43.176;76.872;2023-11-21T00:37:05;90131.28;;;2.21;81.64
82476;BME280;72099;43.176;76.872;2023-11-21T00:40:08;90122.22;;;2.37;81.86
82476;BME280;72099;43.176;76.872;2023-11-21T00:43:09;90112.38;;;2.53;81.44
82476;BME280;72099;43.176;76.872;2023-11-21T00:46:10;90122.50;;;2.68;81.15
82476;BME280;72099;43.176;76.872;2023-11-21T00:52:46;90117.03;;;2.37;80.57
82476;BME280;72099;43.176;76.872;2023-11-21T00:55:47;90111.91;;;2.32;81.45
82476;BME280;72099;43.176;76.872;2023-11-21T00:58:49;90110.94;;;2.28;80.66
82476;BME280;72099;43.176;76.872;2023-11-21T01:01:51;90114.53;;;2.13;80.44
82476;BME280;72099;43.176;76.872;2023-11-21T01:04:52;90114.41;;;2.04;81.34
82476;BME280;72099;43.176;76.872;2023-11-21T01:07:53;90105.41;;;2.16;81.61
82476;BME280;72099;43.176;76.872;2023-11-21T01:10:54;90105.59;;;2.19;80.91
82476;BME280;72099;43.176;76.872;2023-11-21T01:13:55;90099.25;;;2.12;81.02
82476;BME280;72099;43.176;76.872;2023-11-21T01:16:56;90104.44;;;2.12;81.12
82476;BME280;72099;43.176;76.872;2023-11-21T01:19:56;90103.88;;;2.15;80.86
82476;BME280;72099;43.176;76.872;2023-11-21T01:22:58;90097.16;;;1.95;80.55
82476;BME280;72099;43.176;76.872;2023-11-21T01:25:59;90102.25;;;1.81;81.48
82476;BME280;72099;43.176;76.872;2023-11-21T01:28:59;90106.22;;;1.97;81.42
82476;BME280;72099;43.176;76.872;2023-11-21T01:32:02;90103.75;;;1.87;80.80
82476;BME280;72099;43.176;76.872;2023-11-21T01:35:03;90105.72;;;1.76;81.15
82476;BME280;72099;43.176;76.872;2023-11-21T01:38:06;90099.81;;;1.52;81.22
82476;BME280;72099;43.176;76.872;2023-11-21T01:41:08;90102.44;;;1.28;81.15
82476;BME280;72099;43.176;76.872;2023-11-21T01:44:11;90103.44;;;1.08;81.94
82476;BME280;72099;43.176;76.872;2023-11-21T01:47:14;90104.09;;;0.95;81.85
82476;BME280;72099;43.176;76.872;2023-11-21T01:50:16;90100.06;;;0.84;81.97
82476;BME280;72099;43.176;76.872;2023-11-21T01:53:18;90095.50;;;0.76;82.28
82476;BME280;72099;43.176;76.872;2023-11-21T01:56:19;90105.97;;;0.89;83.62
82476;BME280;72099;43.176;76.872;2023-11-21T01:59:57;90091.53;;;1.31;83.38
82476;BME280;72099;43.176;76.872;2023-11-21T02:02:59;90084.00;;;1.72;82.62
82476;BME280;72099;43.176;76.872;2023-11-21T02:06:00;90090.78;;;1.87;81.63
82476;BME280;72099;43.176;76.872;2023-11-21T02:09:01;90093.19;;;1.84;81.10
82476;BME280;72099;43.176;76.872;2023-11-21T02:12:02;90099.94;;;1.80;81.57
82476;BME280;72099;43.176;76.872;2023-11-21T02:15:03;90106.91;;;1.84;81.93
82476;BME280;72099;43.176;76.872;2023-11-21T02:18:10;90110.25;;;2.03;82.02
82476;BME280;72099;43.176;76.872;2023-11-21T02:21:11;90106.66;;;2.18;81.99
82476;BME280;72099;43.176;76.872;2023-11-21T02:24:12;90106.44;;;2.33;81.33
82476;BME280;72099;43.176;76.872;2023-11-21T02:27:13;90104.06;;;2.37;80.98
82476;BME280;72099;43.176;76.872;2023-11-21T02:30:17;90096.41;;;2.27;80.80
82476;BME280;72099;43.176;76.872;2023-11-21T02:33:19;90100.59;;;2.09;81.34
82476;BME280;72099;43.176;76.872;2023-11-21T02:36:20;90085.50;;;2.11;81.83
82476;BME280;72099;43.176;76.872;2023-11-21T02:39:52;90095.38;;;2.28;81.26
82476;BME280;72099;43.176;76.872;2023-11-21T02:42:53;90093.88;;;2.41;81.13
82476;BME280;72099;43.176;76.872;2023-11-21T02:45:54;90099.66;;;2.51;81.19
82476;BME280;72099;43.176;76.872;2023-11-21T02:48:55;90102.34;;;2.46;80.07
82476;BME280;72099;43.176;76.872;2023-11-21T02:51:56;90096.50;;;2.22;81.41
82476;BME280;72099;43.176;76.872;2023-11-21T02:54:56;90096.22;;;2.23;81.39
82476;BME280;72099;43.176;76.872;2023-11-21T02:57:57;90102.94;;;2.24;81.56
82476;BME280;72099;43.176;76.872;2023-11-21T03:00:58;90101.31;;;2.28;80.64
82476;BME280;72099;43.176;76.872;2023-11-21T03:03:59;90104.06;;;2.18;81.24
82476;BME280;72099;43.176;76.872;2023-11-21T03:07:00;90114.91;;;2.39;81.16
82476;BME280;72099;43.176;76.872;2023-11-21T03:10:01;90083.94;;;2.29;81.35
82476;BME280;72099;43.176;76.872;2023-11-21T03:13:02;90117.94;;;2.60;80.75
82476;BME280;72099;43.176;76.872;2023-11-21T03:16:03;90112.69;;;2.65;80.51
82476;BME280;72099;43.176;76.872;2023-11-21T03:19:04;90111.56;;;2.39;80.44
82476;BME280;72099;43.176;76.872;2023-11-21T03:22:05;90106.53;;;2.28;80.96
82476;BME280;72099;43.176;76.872;2023-11-21T03:25:07;90116.09;;;2.47;81.45
82476;BME280;72099;43.176;76.872;2023-11-21T03:28:11;90119.03;;;2.73;81.15
82476;BME280;72099;43.176;76.872;2023-11-21T03:31:11;90114.47;;;2.97;80.23
82476;BME280;72099;43.176;76.872;2023-11-21T03:34:26;90118.53;;;3.17;80.35
82476;BME280;72099;43.176;76.872;2023-11-21T03:37:27;90108.16;;;3.31;80.14
82476;BME280;72099;43.176;76.872;2023-11-21T03:40:28;90106.19;;;3.50;79.61
82476;BME280;72099;43.176;76.872;2023-11-21T03:43:29;90099.72;;;3.61;79.35
82476;BME280;72099;43.176;76.872;2023-11-21T03:46:30;90095.31;;;3.62;79.40
82476;BME280;72099;43.176;76.872;2023-11-21T03:53:04;90088.00;;;4.00;79.33
82476;BME280;72099;43.176;76.872;2023-11-21T03:56:05;90087.09;;;4.18;79.28
82476;BME280;72099;43.176;76.872;2023-11-21T03:59:06;90082.88;;;4.31;78.59
82476;BME280;72099;43.176;76.872;2023-11-21T04:02:07;90079.53;;;4.30;78.45
82476;BME280;72099;43.176;76.872;2023-11-21T04:05:08;90092.13;;;4.37;78.34
82476;BME280;72099;43.176;76.872;2023-11-21T04:08:09;90095.31;;;4.34;78.49
82476;BME280;72099;43.176;76.872;2023-11-21T04:11:10;90080.00;;;4.32;77.67
82476;BME280;72099;43.176;76.872;2023-11-21T04:14:13;90077.31;;;4.24;77.64
82476;BME280;72099;43.176;76.872;2023-11-21T04:17:14;90094.22;;;4.12;77.64
82476;BME280;72099;43.176;76.872;2023-11-21T04:20:14;90080.09;;;4.05;77.75
82476;BME280;72099;43.176;76.872;2023-11-21T04:23:16;90069.69;;;4.05;77.40
82476;BME280;72099;43.176;76.872;2023-11-21T04:26:17;90064.69;;;3.95;77.31
82476;BME280;72099;43.176;76.872;2023-11-21T04:29:18;90067.19;;;4.00;77.77
82476;BME280;72099;43.176;76.872;2023-11-21T04:32:19;90059.38;;;4.22;77.64
82476;BME280;72099;43.176;76.872;2023-11-21T04:35:20;90066.59;;;4.48;77.69
82476;BME280;72099;43.176;76.872;2023-11-21T04:38:21;90053.06;;;4.68;77.19
82476;BME280;72099;43.176;76.872;2023-11-21T04:41:21;90043.59;;;4.72;76.97
82476;BME280;72099;43.176;76.872;2023-11-21T04:44:22;90037.56;;;4.63;76.99
82476;BME280;72099;43.176;76.872;2023-11-21T04:47:23;90038.88;;;4.52;77.42
82476;BME280;72099;43.176;76.872;2023-11-21T04:50:24;90030.09;;;4.39;77.35
82476;BME280;72099;43.176;76.872;2023-11-21T04:53:27;90029.47;;;4.95;78.02
82476;BME280;72099;43.176;76.872;2023-11-21T04:56:28;90028.16;;;6.15;76.16
82476;BME280;72099;43.176;76.872;2023-11-21T05:03:02;90014.41;;;7.97;71.53
82476;BME280;72099;43.176;76.872;2023-11-21T05:06:04;90010.91;;;8.68;69.95
82476;BME280;72099;43.176;76.872;2023-11-21T05:09:05;90002.50;;;10.33;67.22
82476;BME280;72099;43.176;76.872;2023-11-21T05:12:06;90000.63;;;11.84;63.80
82476;BME280;72099;43.176;76.872;2023-11-21T05:15:08;90010.28;;;13.08;60.00
82476;BME280;72099;43.176;76.872;2023-11-21T05:18:10;90012.00;;;13.00;58.20
82476;BME280;72099;43.176;76.872;2023-11-21T05:21:12;90014.44;;;12.13;59.44
82476;BME280;72099;43.176;76.872;2023-11-21T05:24:13;90006.91;;;11.32;59.49
82476;BME280;72099;43.176;76.872;2023-11-21T05:27:14;90004.06;;;10.50;60.95
82476;BME280;72099;43.176;76.872;2023-11-21T05:30:14;89998.53;;;9.74;62.03
82476;BME280;72099;43.176;76.872;2023-11-21T05:33:15;90004.44;;;9.10;63.38
82476;BME280;72099;43.176;76.872;2023-11-21T05:36:16;90003.88;;;8.47;65.02
82476;BME280;72099;43.176;76.872;2023-11-21T05:39:18;90000.97;;;8.19;65.52
82476;BME280;72099;43.176;76.872;2023-11-21T05:42:20;89994.47;;;8.25;65.22
82476;BME280;72099;43.176;76.872;2023-11-21T05:45:21;89989.94;;;8.35;64.69
82476;BME280;72099;43.176;76.872;2023-11-21T05:48:22;89983.47;;;8.11;64.99
82476;BME280;72099;43.176;76.872;2023-11-21T05:51:23;89981.50;;;8.08;65.65
82476;BME280;72099;43.176;76.872;2023-11-21T05:54:25;89980.22;;;7.93;65.05
82476;BME280;72099;43.176;76.872;2023-11-21T05:57:26;89974.22;;;8.35;64.85
82476;BME280;72099;43.176;76.872;2023-11-21T06:00:27;89966.63;;;9.11;63.95
82476;BME280;72099;43.176;76.872;2023-11-21T06:03:28;89950.41;;;10.11;61.74
82476;BME280;72099;43.176;76.872;2023-11-21T06:06:29;89948.66;;;11.18;59.89
82476;BME280;72099;43.176;76.872;2023-11-21T06:10:07;89955.66;;;12.70;55.57
82476;BME280;72099;43.176;76.872;2023-11-21T06:13:11;89951.41;;;13.76;52.82
82476;BME280;72099;43.176;76.872;2023-11-21T06:16:12;89955.03;;;14.48;51.09
82476;BME280;72099;43.176;76.872;2023-11-21T06:19:17;89952.75;;;15.20;49.06
82476;BME280;72099;43.176;76.872;2023-11-21T06:22:18;89954.97;;;15.55;47.57
82476;BME280;72099;43.176;76.872;2023-11-21T06:25:19;89951.19;;;15.56;46.42
82476;BME280;72099;43.176;76.872;2023-11-21T06:28:20;89954.41;;;15.35;47.12
82476;BME280;72099;43.176;76.872;2023-11-21T06:31:21;89949.94;;;14.65;47.93
82476;BME280;72099;43.176;76.872;2023-11-21T06:34:22;89953.09;;;14.18;49.62
82476;BME280;72099;43.176;76.872;2023-11-21T06:37:23;89954.75;;;14.00;49.28
82476;BME280;72099;43.176;76.872;2023-11-21T06:40:24;89947.06;;;13.65;49.78
82476;BME280;72099;43.176;76.872;2023-11-21T06:43:25;89957.06;;;13.06;50.67
82476;BME280;72099;43.176;76.872;2023-11-21T06:46:27;89953.75;;;12.28;52.36
82476;BME280;72099;43.176;76.872;2023-11-21T06:49:28;89947.91;;;11.84;52.93
82476;BME280;72099;43.176;76.872;2023-11-21T06:52:29;89934.50;;;11.22;53.81
82476;BME280;72099;43.176;76.872;2023-11-21T06:55:30;89934.66;;;10.98;55.23
82476;BME280;72099;43.176;76.872;2023-11-21T06:58:33;89919.88;;;10.78;55.52
82476;BME280;72099;43.176;76.872;2023-11-21T07:01:34;89920.41;;;10.99;55.33
82476;BME280;72099;43.176;76.872;2023-11-21T07:04:39;89917.97;;;11.41;54.03
82476;BME280;72099;43.176;76.872;2023-11-21T07:07:42;89914.22;;;11.93;53.11
82476;BME280;72099;43.176;76.872;2023-11-21T07:10:43;89913.13;;;12.33;52.77
82476;BME280;72099;43.176;76.872;2023-11-21T07:13:44;89905.59;;;12.96;51.81
82476;BME280;72099;43.176;76.872;2023-11-21T07:16:46;89899.50;;;13.15;51.04
82476;BME280;72099;43.176;76.872;2023-11-21T07:19:47;89899.91;;;13.17;51.35
82476;BME280;72099;43.176;76.872;2023-11-21T07:22:49;89897.91;;;12.88;52.10
82476;BME280;72099;43.176;76.872;2023-11-21T07:25:50;89899.47;;;12.69;51.99
82476;BME280;72099;43.176;76.872;2023-11-21T07:29:24;89900.81;;;11.98;52.89
82476;BME280;72099;43.176;76.872;2023-11-21T07:32:31;89894.22;;;11.73;54.88
82476;BME280;72099;43.176;76.872;2023-11-21T07:35:32;89893.38;;;12.04;54.35
82476;BME280;72099;43.176;76.872;2023-11-21T07:38:33;89885.31;;;12.16;52.90
82476;BME280;72099;43.176;76.872;2023-11-21T07:41:33;89884.19;;;12.79;52.54
82476;BME280;72099;43.176;76.872;2023-11-21T07:44:35;89869.06;;;13.21;51.24
82476;BME280;72099;43.176;76.872;2023-11-21T07:47:36;89868.97;;;13.18;51.06
82476;BME280;72099;43.176;76.872;2023-11-21T07:50:37;89874.91;;;13.34;50.89
82476;BME280;72099;43.176;76.872;2023-11-21T07:53:38;89866.47;;;13.51;50.28
82476;BME280;72099;43.176;76.872;2023-11-21T07:56:39;89864.28;;;13.83;49.59
82476;BME280;72099;43.176;76.872;2023-11-21T07:59:40;89855.50;;;14.77;47.84
82476;BME280;72099;43.176;76.872;2023-11-21T08:02:41;89850.88;;;15.62;46.12
82476;BME280;72099;43.176;76.872;2023-11-21T08:05:46;89845.69;;;15.83;45.52
82476;BME280;72099;43.176;76.872;2023-11-21T08:08:47;89854.22;;;15.55;45.91
82476;BME280;72099;43.176;76.872;2023-11-21T08:11:48;89855.06;;;15.15;46.70
82476;BME280;72099;43.176;76.872;2023-11-21T08:14:49;89856.09;;;15.51;45.88
82476;BME280;72099;43.176;76.872;2023-11-21T08:17:51;89855.53;;;15.76;45.41
82476;BME280;72099;43.176;76.872;2023-11-21T08:20:51;89848.47;;;16.08;44.53
82476;BME280;72099;43.176;76.872;2023-11-21T08:23:52;89846.31;;;16.32;44.22
82476;BME280;72099;43.176;76.872;2023-11-21T08:26:54;89841.75;;;16.36;43.95
82476;BME280;72099;43.176;76.872;2023-11-21T08:29:55;89841.28;;;16.12;44.20
82476;BME280;72099;43.176;76.872;2023-11-21T08:32:57;89839.63;;;15.83;44.47
82476;BME280;72099;43.176;76.872;2023-11-21T08:35:58;89830.56;;;15.84;44.02
82476;BME280;72099;43.176;76.872;2023-11-21T08:39:38;89824.53;;;15.94;43.14
82476;BME280;72099;43.176;76.872;2023-11-21T08:42:39;89821.88;;;15.90;43.18
82476;BME280;72099;43.176;76.872;2023-11-21T08:45:40;89814.47;;;15.55;43.45
82476;BME280;72099;43.176;76.872;2023-11-21T08:49:17;89819.09;;;15.11;43.76
82476;BME280;72099;43.176;76.872;2023-11-21T08:52:18;89818.25;;;14.99;44.33
82476;BME280;72099;43.176;76.872;2023-11-21T08:55:19;89808.38;;;14.96;44.26
82476;BME280;72099;43.176;76.872;2023-11-21T08:58:20;89812.22;;;15.02;44.15
82476;BME280;72099;43.176;76.872;2023-11-21T09:01:22;89796.41;;;15.13;43.54
82476;BME280;72099;43.176;76.872;2023-11-21T09:04:24;89794.50;;;15.14;43.79
82476;BME280;72099;43.176;76.872;2023-11-21T09:07:25;89796.81;;;15.19;43.92
82476;BME280;72099;43.176;76.872;2023-11-21T09:10:26;89794.44;;;15.07;43.62
82476;BME280;72099;43.176;76.872;2023-11-21T09:13:28;89787.44;;;14.81;44.12
82476;BME280;72099;43.176;76.872;2023-11-21T09:16:30;89788.56;;;14.39;44.36
82476;BME280;72099;43.176;76.872;2023-11-21T09:19:32;89784.47;;;14.08;45.11
82476;BME280;72099;43.176;76.872;2023-11-21T09:22:33;89790.47;;;13.71;46.00
82476;BME280;72099;43.176;76.872;2023-11-21T09:25:34;89786.41;;;13.47;46.71
82476;BME280;72099;43.176;76.872;2023-11-21T09:28:35;89780.19;;;13.33;47.47
82476;BME280;72099;43.176;76.872;2023-11-21T09:31:38;89771.97;;;13.15;47.98
82476;BME280;72099;43.176;76.872;2023-11-21T09:34:39;89767.91;;;12.68;48.83
82476;BME280;72099;43.176;76.872;2023-11-21T09:37:39;89764.75;;;12.36;49.59
82476;BME280;72099;43.176;76.872;2023-11-21T09:40:40;89765.22;;;12.42;49.24
82476;BME280;72099;43.176;76.872;2023-11-21T09:43:41;89747.34;;;12.31;49.41
82476;BME280;72099;43.176;76.872;2023-11-21T09:46:42;89769.13;;;12.05;50.31
82476;BME280;72099;43.176;76.872;2023-11-21T09:49:48;89766.16;;;11.49;51.05
82476;BME280;72099;43.176;76.872;2023-11-21T09:56:11;89767.78;;;10.32;54.23
82476;BME280;72099;43.176;76.872;2023-11-21T09:59:15;89778.28;;;9.89;55.49
82476;BME280;72099;43.176;76.872;2023-11-21T10:02:17;89768.81;;;9.56;56.67
82476;BME280;72099;43.176;76.872;2023-11-21T10:05:19;89770.97;;;9.38;57.34
82476;BME280;72099;43.176;76.872;2023-11-21T10:08:23;89778.91;;;9.14;57.63
82476;BME280;72099;43.176;76.872;2023-11-21T10:11:25;89776.34;;;8.90;58.23
82476;BME280;72099;43.176;76.872;2023-11-21T10:14:28;89779.63;;;8.74;59.16
82476;BME280;72099;43.176;76.872;2023-11-21T10:17:31;89784.88;;;8.62;59.19
82476;BME280;72099;43.176;76.872;2023-11-21T10:20:39;89782.28;;;8.50;60.26
82476;BME280;72099;43.176;76.872;2023-11-21T10:23:40;89776.44;;;8.32;61.39
82476;BME280;72099;43.176;76.872;2023-11-21T10:26:41;89783.53;;;8.32;60.86
82476;BME280;72099;43.176;76.872;2023-11-21T10:29:42;89779.16;;;8.11;61.79
82476;BME280;72099;43.176;76.872;2023-11-21T10:32:42;89789.41;;;8.04;61.80
82476;BME280;72099;43.176;76.872;2023-11-21T10:38:55;89790.13;;;7.80;62.58
82476;BME280;72099;43.176;76.872;2023-11-21T10:41:57;89788.47;;;7.76;62.47
82476;BME280;72099;43.176;76.872;2023-11-21T10:44:58;89781.03;;;7.65;63.54
82476;BME280;72099;43.176;76.872;2023-11-21T10:51:32;89780.91;;;7.62;64.46
82476;BME280;72099;43.176;76.872;2023-11-21T10:54:33;89787.88;;;7.58;65.11
82476;BME280;72099;43.176;76.872;2023-11-21T10:57:33;89785.66;;;7.48;68.47
82476;BME280;72099;43.176;76.872;2023-11-21T11:00:34;89787.03;;;7.66;66.23
82476;BME280;72099;43.176;76.872;2023-11-21T11:03:35;89774.97;;;7.53;67.62
82476;BME280;72099;43.176;76.872;2023-11-21T11:06:36;89780.28;;;7.32;67.44
82476;BME280;72099;43.176;76.872;2023-11-21T11:09:39;89776.19;;;7.22;68.64
82476;BME280;72099;43.176;76.872;2023-11-21T11:12:46;89772.81;;;7.22;68.83
82476;BME280;72099;43.176;76.872;2023-11-21T11:15:48;89775.16;;;7.15;69.38
82476;BME280;72099;43.176;76.872;2023-11-21T11:18:49;89783.84;;;7.06;71.61
82476;BME280;72099;43.176;76.872;2023-11-21T11:22:19;89782.50;;;7.00;71.46
82476;BME280;72099;43.176;76.872;2023-11-21T11:25:37;89778.56;;;6.94;71.30
82476;BME280;72099;43.176;76.872;2023-11-21T11:35:19;89766.31;;;6.36;71.50
82476;BME280;72099;43.176;76.872;2023-11-21T11:38:22;89768.25;;;6.18;72.37
82476;BME280;72099;43.176;76.872;2023-11-21T11:41:27;89756.66;;;5.98;72.13
82476;BME280;72099;43.176;76.872;2023-11-21T11:47:47;89757.75;;;5.88;73.38
82476;BME280;72099;43.176;76.872;2023-11-21T11:51:02;89747.66;;;5.78;73.12
82476;BME280;72099;43.176;76.872;2023-11-21T11:54:09;89742.50;;;5.61;73.19
82476;BME280;72099;43.176;76.872;2023-11-21T11:57:12;89747.53;;;5.66;73.40
82476;BME280;72099;43.176;76.872;2023-11-21T12:00:18;89748.19;;;5.63;72.93
82476;BME280;72099;43.176;76.872;2023-11-21T12:03:25;89746.03;;;5.56;73.33
82476;BME280;72099;43.176;76.872;2023-11-21T12:06:36;89748.00;;;5.59;73.45
82476;BME280;72099;43.176;76.872;2023-11-21T12:09:37;89752.97;;;5.52;73.09
82476;BME280;72099;43.176;76.872;2023-11-21T12:12:41;89742.09;;;5.33;73.07
82476;BME280;72099;43.176;76.872;2023-11-21T12:15:42;89741.69;;;5.14;73.27
82476;BME280;72099;43.176;76.872;2023-11-21T12:18:43;89742.78;;;4.95;73.92
82476;BME280;72099;43.176;76.872;2023-11-21T12:21:44;89724.69;;;4.90;74.83
82476;BME280;72099;43.176;76.872;2023-11-21T12:24:45;89748.13;;;5.16;74.45
82476;BME280;72099;43.176;76.872;2023-11-21T12:27:48;89742.28;;;5.19;73.73
82476;BME280;72099;43.176;76.872;2023-11-21T12:30:50;89748.56;;;5.18;73.86
82476;BME280;72099;43.176;76.872;2023-11-21T12:33:51;89748.59;;;5.01;73.52
82476;BME280;72099;43.176;76.872;2023-11-21T12:36:53;89744.94;;;4.76;73.98
82476;BME280;72099;43.176;76.872;2023-11-21T12:39:55;89746.91;;;4.53;74.39
82476;BME280;72099;43.176;76.872;2023-11-21T12:42:59;89736.00;;;4.25;74.52
82476;BME280;72099;43.176;76.872;2023-11-21T12:46:11;89748.97;;;4.17;75.37
82476;BME280;72099;43.176;76.872;2023-11-21T12:49:14;89752.81;;;4.10;75.08
82476;BME280;72099;43.176;76.872;2023-11-21T12:52:17;89754.19;;;4.08;75.11
82476;BME280;72099;43.176;76.872;2023-11-21T12:55:22;89757.56;;;4.08;75.46
82476;BME280;72099;43.176;76.872;2023-11-21T12:58:24;89760.44;;;3.98;75.76
82476;BME280;72099;43.176;76.872;2023-11-21T13:01:26;89754.31;;;3.94;76.00
82476;BME280;72099;43.176;76.872;2023-11-21T13:04:32;89761.31;;;3.85;75.83
82476;BME280;72099;43.176;76.872;2023-11-21T13:07:42;89753.34;;;3.81;75.93
82476;BME280;72099;43.176;76.872;2023-11-21T13:10:50;89748.44;;;3.80;75.88
82476;BME280;72099;43.176;76.872;2023-11-21T13:13:52;89752.69;;;3.76;76.11
82476;BME280;72099;43.176;76.872;2023-11-21T13:16:56;89753.00;;;3.74;76.55
82476;BME280;72099;43.176;76.872;2023-11-21T13:19:57;89745.63;;;3.68;76.21
82476;BME280;72099;43.176;76.872;2023-11-21T13:22:59;89742.53;;;3.57;76.62
82476;BME280;72099;43.176;76.872;2023-11-21T13:26:01;89735.16;;;3.50;76.52
82476;BME280;72099;43.176;76.872;2023-11-21T13:29:04;89737.44;;;3.43;76.71
82476;BME280;72099;43.176;76.872;2023-11-21T13:32:05;89725.59;;;3.37;76.63
82476;BME280;72099;43.176;76.872;2023-11-21T13:35:07;89728.50;;;3.36;76.47
82476;BME280;72099;43.176;76.872;2023-11-21T13:38:17;89709.84;;;3.34;77.21
82476;BME280;72099;43.176;76.872;2023-11-21T13:41:18;89705.88;;;3.28;76.72
82476;BME280;72099;43.176;76.872;2023-11-21T13:44:20;89710.59;;;3.25;77.29
82476;BME280;72099;43.176;76.872;2023-11-21T13:47:29;89713.47;;;3.24;77.08
82476;BME280;72099;43.176;76.872;2023-11-21T13:50:31;89715.91;;;3.20;77.11
82476;BME280;72099;43.176;76.872;2023-11-21T13:53:36;89711.91;;;3.14;77.13
82476;BME280;72099;43.176;76.872;2023-11-21T13:56:40;89714.16;;;3.07;77.41
82476;BME280;72099;43.176;76.872;2023-11-21T13:59:42;89708.31;;;3.02;77.55
82476;BME280;72099;43.176;76.872;2023-11-21T14:02:44;89716.69;;;2.99;77.51
82476;BME280;72099;43.176;76.872;2023-11-21T14:05:45;89721.56;;;2.91;77.55
82476;BME280;72099;43.176;76.872;2023-11-21T14:08:52;89721.66;;;2.86;77.96
82476;BME280;72099;43.176;76.872;2023-11-21T14:11:57;89710.16;;;2.79;78.04
82476;BME280;72099;43.176;76.872;2023-11-21T14:14:58;89716.00;;;2.84;78.16
82476;BME280;72099;43.176;76.872;2023-11-21T14:17:59;89712.06;;;2.87;77.51
82476;BME280;72099;43.176;76.872;2023-11-21T14:21:08;89704.97;;;2.79;78.12
82476;BME280;72099;43.176;76.872;2023-11-21T14:24:12;89706.50;;;2.80;78.11
82476;BME280;72099;43.176;76.872;2023-11-21T14:27:18;89719.97;;;2.82;78.03
82476;BME280;72099;43.176;76.872;2023-11-21T14:30:19;89720.72;;;2.82;78.56
82476;BME280;72099;43.176;76.872;2023-11-21T14:33:22;89717.06;;;2.83;78.16
82476;BME280;72099;43.176;76.872;2023-11-21T14:36:23;89713.22;;;2.81;78.31
82476;BME280;72099;43.176;76.872;2023-11-21T14:42:58;89699.91;;;2.74;78.19
82476;BME280;72099;43.176;76.872;2023-11-21T14:46:00;89701.53;;;2.70;77.87
82476;BME280;72099;43.176;76.872;2023-11-21T14:49:23;89699.53;;;2.66;77.98
82476;BME280;72099;43.176;76.872;2023-11-21T14:52:28;89696.47;;;2.64;78.69
82476;BME280;72099;43.176;76.872;2023-11-21T14:55:35;89699.69;;;2.61;78.19
82476;BME280;72099;43.176;76.872;2023-11-21T14:58:39;89698.72;;;2.57;78.34
82476;BME280;72099;43.176;76.872;2023-11-21T15:01:41;89695.94;;;2.54;78.43
82476;BME280;72099;43.176;76.872;2023-11-21T15:04:55;89702.31;;;2.48;78.35
82476;BME280;72099;43.176;76.872;2023-11-21T15:08:02;89696.94;;;2.44;78.91
82476;BME280;72099;43.176;76.872;2023-11-21T15:11:20;89690.16;;;2.34;78.65
82476;BME280;72099;43.176;76.872;2023-11-21T15:14:25;89694.56;;;2.34;78.68
82476;BME280;72099;43.176;76.872;2023-11-21T15:17:32;89696.97;;;2.30;78.82
82476;BME280;72099;43.176;76.872;2023-11-21T15:20:33;89689.31;;;2.25;78.77
82476;BME280;72099;43.176;76.872;2023-11-21T15:23:34;89683.00;;;2.18;78.69
82476;BME280;72099;43.176;76.872;2023-11-21T15:26:35;89688.94;;;2.18;79.04
82476;BME280;72099;43.176;76.872;2023-11-21T15:33:03;89681.63;;;2.20;79.30
82476;BME280;72099;43.176;76.872;2023-11-21T15:36:05;89676.44;;;2.20;79.18
82476;BME280;72099;43.176;76.872;2023-11-21T15:39:10;89660.84;;;2.12;78.98
82476;BME280;72099;43.176;76.872;2023-11-21T15:42:11;89666.66;;;2.17;79.08
82476;BME280;72099;43.176;76.872;2023-11-21T15:45:12;89675.50;;;2.16;79.59
82476;BME280;72099;43.176;76.872;2023-11-21T15:48:30;89675.63;;;2.11;79.11
82476;BME280;72099;43.176;76.872;2023-11-21T15:51:31;89673.91;;;2.06;79.04
82476;BME280;72099;43.176;76.872;2023-11-21T15:54:32;89670.19;;;1.99;79.26
82476;BME280;72099;43.176;76.872;2023-11-21T15:57:35;89680.72;;;2.02;78.96
82476;BME280;72099;43.176;76.872;2023-11-21T16:00:36;89675.38;;;1.99;78.99
82476;BME280;72099;43.176;76.872;2023-11-21T16:03:37;89675.47;;;1.94;79.11
82476;BME280;72099;43.176;76.872;2023-11-21T16:06:39;89677.69;;;1.87;79.34
82476;BME280;72099;43.176;76.872;2023-11-21T16:09:40;89680.88;;;1.84;79.33
82476;BME280;72099;43.176;76.872;2023-11-21T16:12:43;89677.31;;;1.80;79.40
82476;BME280;72099;43.176;76.872;2023-11-21T16:15:44;89677.13;;;1.76;79.10
82476;BME280;72099;43.176;76.872;2023-11-21T16:18:45;89670.78;;;1.68;79.29
82476;BME280;72099;43.176;76.872;2023-11-21T16:21:47;89669.09;;;1.64;79.56
82476;BME280;72099;43.176;76.872;2023-11-21T16:24:48;89649.72;;;1.47;79.57
82476;BME280;72099;43.176;76.872;2023-11-21T16:27:49;89666.59;;;1.59;79.59
82476;BME280;72099;43.176;76.872;2023-11-21T16:30:50;89666.59;;;1.59;79.77
82476;BME280;72099;43.176;76.872;2023-11-21T16:33:51;89656.63;;;1.52;79.88
82476;BME280;72099;43.176;76.872;2023-11-21T16:36:52;89662.47;;;1.58;80.15
82476;BME280;72099;43.176;76.872;2023-11-21T16:39:53;89660.44;;;1.55;79.70
82476;BME280;72099;43.176;76.872;2023-11-21T16:42:54;89669.28;;;1.54;80.19